createdAt,value
2023-03-26T00:01:39.525Z,98987.00
2023-03-26T00:04:07.548Z,98988.00
2023-03-26T00:06:38.820Z,98987.00
2023-03-26T00:09:07.830Z,98994.00
2023-03-26T00:11:36.179Z,98987.00
2023-03-26T00:14:04.062Z,98990.00
2023-03-26T00:16:32.384Z,98994.00
2023-03-26T00:19:01.446Z,98998.00
2023-03-26T00:21:29.624Z,99002.00
2023-03-26T00:24:08.297Z,99010.00
2023-03-26T00:26:37.846Z,98997.00
2023-03-26T00:29:07.079Z,99009.00
2023-03-26T00:31:35.905Z,99008.00
2023-03-26T00:34:05.691Z,99006.00
2023-03-26T00:36:36.172Z,99014.00
2023-03-26T00:39:06.152Z,99013.00
2023-03-26T00:41:39.658Z,99016.00
2023-03-26T00:44:07.297Z,99016.00
2023-03-26T00:46:34.969Z,99019.00
2023-03-26T00:49:04.173Z,99013.00
2023-03-26T00:51:33.605Z,99009.00
2023-03-26T00:54:01.711Z,99000.00
2023-03-26T00:56:29.800Z,99006.00
2023-03-26T00:58:57.892Z,99011.00
2023-03-26T01:01:30.735Z,99011.00
2023-03-26T01:04:08.327Z,99006.00
2023-03-26T01:06:37.989Z,99010.00
2023-03-26T01:09:11.828Z,99017.00
2023-03-26T01:11:39.720Z,99015.00
2023-03-26T01:14:12.087Z,99020.00
2023-03-26T01:17:00.012Z,99022.00
2023-03-26T01:19:46.084Z,99015.00
2023-03-26T01:22:17.474Z,99019.00
2023-03-26T01:24:48.868Z,99019.00
2023-03-26T01:27:24.643Z,99015.00
2023-03-26T01:29:55.838Z,99011.00
2023-03-26T01:32:32.632Z,99014.00
2023-03-26T01:35:06.633Z,99007.00
2023-03-26T01:37:58.876Z,99006.00
2023-03-26T01:40:28.285Z,99024.00
2023-03-26T01:43:06.074Z,99025.00
2023-03-26T01:45:34.832Z,99015.00
2023-03-26T01:48:02.910Z,99026.00
2023-03-26T01:50:31.505Z,99027.00
2023-03-26T01:52:59.219Z,99022.00
2023-03-26T01:55:28.812Z,99024.00
2023-03-26T01:58:11.104Z,99027.00
2023-03-26T02:00:42.919Z,99025.00
2023-03-26T02:03:28.433Z,99028.00
2023-03-26T02:06:02.317Z,99025.00
2023-03-26T02:08:51.572Z,99023.00
2023-03-26T02:11:20.044Z,99025.00
2023-03-26T02:13:48.010Z,99035.00
2023-03-26T02:16:16.979Z,99031.00
2023-03-26T02:18:45.881Z,99023.00
2023-03-26T02:21:21.634Z,99028.00
2023-03-26T02:23:51.014Z,99033.00
2023-03-26T02:26:19.555Z,99021.00
2023-03-26T02:29:04.254Z,99034.00
2023-03-26T02:31:33.247Z,99033.00
2023-03-26T02:34:01.400Z,99030.00
2023-03-26T02:36:32.215Z,99033.00
2023-03-26T02:39:02.999Z,99033.00
2023-03-26T02:41:38.093Z,99029.00
2023-03-26T02:44:09.482Z,99029.00
2023-03-26T02:46:55.657Z,99034.00
2023-03-26T02:49:41.515Z,99034.00
2023-03-26T02:52:10.110Z,99035.00
2023-03-26T02:54:37.862Z,99036.00
2023-03-26T02:57:34.853Z,99037.00
2023-03-26T03:00:29.173Z,99039.00
2023-03-26T03:03:17.295Z,99032.00
2023-03-26T03:06:00.117Z,99031.00
2023-03-26T03:08:47.813Z,99039.00
2023-03-26T03:11:16.594Z,99032.00
2023-03-26T03:13:47.066Z,99033.00
2023-03-26T03:16:24.030Z,99035.00
2023-03-26T03:18:54.943Z,99037.00
2023-03-26T03:21:25.029Z,99037.00
2023-03-26T03:23:53.208Z,99032.00
2023-03-26T03:26:27.935Z,99028.00
2023-03-26T03:28:56.762Z,99014.00
2023-03-26T03:31:25.434Z,99019.00
2023-03-26T03:33:56.864Z,99019.00
2023-03-26T03:36:28.139Z,99020.00
2023-03-26T03:39:05.684Z,99021.00
2023-03-26T03:41:35.103Z,99034.00
2023-03-26T03:44:06.362Z,99029.00
2023-03-26T03:46:34.939Z,99031.00
2023-03-26T03:49:02.918Z,99030.00
2023-03-26T03:51:35.614Z,99033.00
2023-03-26T03:54:06.561Z,99034.00
2023-03-26T03:56:47.430Z,99036.00
2023-03-26T03:59:15.718Z,99034.00
2023-03-26T04:05:27.002Z,99036.00
2023-03-26T04:07:54.770Z,99037.00
2023-03-26T04:10:22.576Z,99035.00
2023-03-26T04:13:02.446Z,99031.00
2023-03-26T04:15:59.697Z,99028.00
2023-03-26T04:18:29.766Z,99026.00
2023-03-26T04:21:03.393Z,99024.00
2023-03-26T04:23:32.102Z,99023.00
2023-03-26T04:26:11.728Z,99030.00
2023-03-26T04:29:05.745Z,99026.00
2023-03-26T04:31:36.445Z,99025.00
2023-03-26T04:34:06.669Z,99020.00
2023-03-26T04:36:42.650Z,99032.00
2023-03-26T04:39:11.702Z,99023.00
2023-03-26T04:42:14.532Z,99026.00
2023-03-26T04:44:54.996Z,99030.00
2023-03-26T04:47:23.736Z,99020.00
2023-03-26T04:49:51.603Z,99021.00
2023-03-26T04:52:19.553Z,99024.00
2023-03-26T04:55:25.791Z,99013.00
2023-03-26T04:58:06.276Z,99010.00
2023-03-26T05:00:54.664Z,99008.00
2023-03-26T05:03:22.663Z,99000.00
2023-03-26T05:05:50.766Z,99002.00
2023-03-26T05:08:18.439Z,98998.00
2023-03-26T05:10:46.180Z,99006.00
2023-03-26T05:13:19.797Z,99007.00
2023-03-26T05:15:51.161Z,99009.00
2023-03-26T05:18:37.977Z,99011.00
2023-03-26T05:21:09.140Z,98998.00
2023-03-26T05:23:39.810Z,99010.00
2023-03-26T05:26:21.680Z,99005.00
2023-03-26T05:28:50.003Z,99001.00
2023-03-26T05:31:44.431Z,98996.00
2023-03-26T05:34:12.236Z,99001.00
2023-03-26T05:36:39.882Z,99000.00
2023-03-26T05:39:27.145Z,98992.00
2023-03-26T05:41:57.848Z,98999.00
2023-03-26T05:44:34.153Z,98999.00
2023-03-26T05:47:07.110Z,98993.00
2023-03-26T05:49:35.119Z,98992.00
2023-03-26T05:52:03.156Z,98993.00
2023-03-26T05:54:50.984Z,98994.00
2023-03-26T05:57:42.798Z,98994.00
2023-03-26T06:00:40.023Z,98987.00
2023-03-26T06:03:13.199Z,98983.00
2023-03-26T06:06:02.484Z,98982.00
2023-03-26T06:08:41.422Z,98983.00
2023-03-26T06:11:12.751Z,98987.00
2023-03-26T06:13:40.583Z,98976.00
2023-03-26T06:16:26.895Z,98979.00
2023-03-26T06:19:33.873Z,98981.00
2023-03-26T06:22:11.972Z,98973.00
2023-03-26T06:24:59.401Z,98974.00
2023-03-26T06:27:52.872Z,98975.00
2023-03-26T06:30:39.351Z,98971.00
2023-03-26T06:33:39.239Z,98973.00
2023-03-26T06:36:07.538Z,98968.00
2023-03-26T06:38:35.958Z,98967.00
2023-03-26T06:41:06.426Z,98975.00
2023-03-26T06:43:53.037Z,98967.00
2023-03-26T06:46:39.433Z,98968.00
2023-03-26T06:49:38.363Z,98974.00
2023-03-26T06:52:19.047Z,98973.00
2023-03-26T06:55:02.215Z,98970.00
2023-03-26T06:57:58.464Z,98972.00
2023-03-26T07:00:39.019Z,98975.00
2023-03-26T07:03:25.279Z,98972.00
2023-03-26T07:06:11.312Z,98969.00
2023-03-26T07:08:57.779Z,98971.00
2023-03-26T07:11:29.468Z,98972.00
2023-03-26T07:14:17.374Z,98973.00
2023-03-26T07:17:07.850Z,98971.00
2023-03-26T07:19:55.713Z,98970.00
2023-03-26T07:22:26.882Z,98966.00
2023-03-26T07:25:14.619Z,98964.00
2023-03-26T07:27:58.265Z,98959.00
2023-03-26T07:30:49.061Z,98959.00
2023-03-26T07:33:33.287Z,98953.00
2023-03-26T07:36:29.663Z,98955.00
2023-03-26T07:39:23.069Z,98957.00
2023-03-26T07:42:11.029Z,98959.00
2023-03-26T07:45:03.302Z,98963.00
2023-03-26T07:47:43.371Z,98966.00
2023-03-26T07:50:25.685Z,98964.00
2023-03-26T07:53:11.048Z,98968.00
2023-03-26T07:56:06.590Z,98966.00
2023-03-26T07:58:53.010Z,98968.00
2023-03-26T08:01:42.367Z,98963.00
2023-03-26T08:04:34.951Z,98961.00
2023-03-26T08:07:34.335Z,98961.00
2023-03-26T08:10:38.252Z,98958.00
2023-03-26T08:13:18.159Z,98953.00
2023-03-26T08:16:08.274Z,98947.00
2023-03-26T08:18:41.524Z,98951.00
2023-03-26T08:21:11.309Z,98942.00
2023-03-26T08:23:50.406Z,98940.00
2023-03-26T08:26:27.664Z,98938.00
2023-03-26T08:28:58.076Z,98946.00
2023-03-26T08:31:33.693Z,98937.00
2023-03-26T08:34:01.562Z,98947.00
2023-03-26T08:36:29.713Z,98943.00
2023-03-26T08:39:02.345Z,98949.00
2023-03-26T08:41:45.623Z,98944.00
2023-03-26T08:44:28.522Z,98951.00
2023-03-26T08:47:05.393Z,98952.00
2023-03-26T08:49:42.104Z,98952.00
2023-03-26T08:52:12.508Z,98945.00
2023-03-26T08:54:57.183Z,98949.00
2023-03-26T08:57:33.285Z,98944.00
2023-03-26T09:00:20.401Z,98942.00
2023-03-26T09:03:00.689Z,98941.00
2023-03-26T09:05:48.599Z,98943.00
2023-03-26T09:08:24.109Z,98946.00
2023-03-26T09:11:08.821Z,98946.00
2023-03-26T09:13:55.196Z,98946.00
2023-03-26T09:16:26.636Z,98938.00
2023-03-26T09:19:13.108Z,98939.00
2023-03-26T09:21:54.960Z,98935.00
2023-03-26T09:24:37.854Z,98926.00
2023-03-26T09:27:24.357Z,98934.00
2023-03-26T09:29:52.123Z,98927.00
2023-03-26T09:32:38.495Z,98928.00
2023-03-26T09:35:38.710Z,98925.00
2023-03-26T09:38:11.425Z,98927.00
2023-03-26T09:41:03.022Z,98916.00
2023-03-26T09:43:49.399Z,98912.00
2023-03-26T09:46:20.108Z,98912.00
2023-03-26T09:48:48.599Z,98913.00
2023-03-26T09:51:22.556Z,98919.00
2023-03-26T09:54:09.129Z,98919.00
2023-03-26T09:56:42.791Z,98918.00
2023-03-26T09:59:10.324Z,98908.00
2023-03-26T10:01:40.849Z,98909.00
2023-03-26T10:04:08.526Z,98908.00
2023-03-26T10:06:48.952Z,98906.00
2023-03-26T10:09:17.679Z,98900.00
2023-03-26T10:11:45.490Z,98895.00
2023-03-26T10:14:13.148Z,98889.00
2023-03-26T10:16:50.019Z,98894.00
2023-03-26T10:19:34.364Z,98891.00
2023-03-26T10:22:09.833Z,98885.00
2023-03-26T10:24:56.473Z,98889.00
2023-03-26T10:27:39.328Z,98892.00
2023-03-26T10:30:25.706Z,98888.00
2023-03-26T10:32:56.439Z,98890.00
2023-03-26T10:35:27.476Z,98875.00
2023-03-26T10:37:58.348Z,98884.00
2023-03-26T10:40:35.289Z,98881.00
2023-03-26T10:43:05.968Z,98872.00
2023-03-26T10:45:49.697Z,98876.00
2023-03-26T10:48:20.439Z,98874.00
2023-03-26T10:50:48.015Z,98868.00
2023-03-26T10:53:29.035Z,98866.00
2023-03-26T10:56:00.118Z,98874.00
2023-03-26T10:58:29.704Z,98876.00
2023-03-26T11:01:22.905Z,98867.00
2023-03-26T11:03:55.184Z,98857.00
2023-03-26T11:06:41.562Z,98862.00
2023-03-26T11:09:14.546Z,98866.00
2023-03-26T11:11:45.899Z,98864.00
2023-03-26T11:14:36.979Z,98855.00
2023-03-26T11:17:08.059Z,98869.00
2023-03-26T11:19:42.137Z,98868.00
2023-03-26T11:22:16.000Z,98868.00
2023-03-26T11:27:33.598Z,98871.00
2023-03-26T11:30:12.530Z,98872.00
2023-03-26T11:32:41.940Z,98867.00
2023-03-26T11:35:15.887Z,98867.00
2023-03-26T11:37:44.822Z,98869.00
2023-03-26T11:40:21.614Z,98864.00
2023-03-26T11:42:50.171Z,98856.00
2023-03-26T11:45:22.790Z,98860.00
2023-03-26T11:47:52.042Z,98856.00
2023-03-26T11:50:24.582Z,98850.00
2023-03-26T11:52:54.450Z,98847.00
2023-03-26T11:55:24.249Z,98852.00
2023-03-26T11:57:54.072Z,98844.00
2023-03-26T12:00:23.324Z,98849.00
2023-03-26T12:02:51.166Z,98850.00
2023-03-26T12:05:19.750Z,98844.00
2023-03-26T12:07:52.792Z,98842.00
2023-03-26T12:10:22.042Z,98846.00
2023-03-26T12:12:52.784Z,98839.00
2023-03-26T12:15:21.033Z,98845.00
2023-03-26T12:20:39.366Z,98837.00
2023-03-26T12:23:08.642Z,98837.00
2023-03-26T12:25:37.389Z,98839.00
2023-03-26T12:28:13.829Z,98838.00
2023-03-26T12:30:43.602Z,98835.00
2023-03-26T12:33:16.706Z,98827.00
2023-03-26T12:35:44.755Z,98833.00
2023-03-26T12:38:22.577Z,98839.00
2023-03-26T12:44:42.702Z,98835.00
2023-03-26T12:44:56.532Z,98837.00
2023-03-26T12:47:58.100Z,98836.00
2023-03-26T12:49:59.832Z,98836.00
2023-03-26T12:52:49.675Z,98839.00
2023-03-26T12:55:22.362Z,98829.00
2023-03-26T12:57:56.721Z,98831.00
2023-03-26T13:00:41.988Z,98829.00
2023-03-26T13:03:13.986Z,98830.00
2023-03-26T13:05:48.338Z,98827.00
2023-03-26T13:08:30.384Z,98832.00
2023-03-26T13:11:24.874Z,98828.00
2023-03-26T13:13:57.265Z,98828.00
2023-03-26T13:16:47.592Z,98825.00
2023-03-26T13:19:15.660Z,98816.00
2023-03-26T13:21:53.931Z,98820.00
2023-03-26T13:24:37.588Z,98816.00
2023-03-26T13:27:09.615Z,98812.00
2023-03-26T13:29:37.491Z,98816.00
2023-03-26T13:32:31.348Z,98807.00
2023-03-26T13:35:39.621Z,98808.00
2023-03-26T13:38:14.344Z,98801.00
2023-03-26T13:40:42.564Z,98803.00
2023-03-26T13:43:22.713Z,98799.00
2023-03-26T13:45:55.799Z,98798.00
2023-03-26T13:48:28.673Z,98803.00
2023-03-26T13:51:08.887Z,98798.00
2023-03-26T13:53:57.117Z,98793.00
2023-03-26T13:56:31.638Z,98794.00
2023-03-26T13:59:03.930Z,98796.00
2023-03-26T14:01:35.468Z,98794.00
2023-03-26T14:04:06.579Z,98791.00
2023-03-26T14:06:34.559Z,98791.00
2023-03-26T14:09:07.104Z,98791.00
2023-03-26T14:11:44.392Z,98793.00
2023-03-26T14:14:19.684Z,98801.00
2023-03-26T14:16:48.885Z,98800.00
2023-03-26T14:19:36.340Z,98807.00
2023-03-26T14:22:27.556Z,98802.00
2023-03-26T14:25:01.795Z,98799.00
2023-03-26T14:27:34.319Z,98800.00
2023-03-26T14:30:11.444Z,98794.00
2023-03-26T14:32:53.462Z,98794.00
2023-03-26T14:35:28.189Z,98792.00
2023-03-26T14:38:03.118Z,98796.00
2023-03-26T14:40:33.958Z,98793.00
2023-03-26T14:43:20.765Z,98786.00
2023-03-26T14:46:07.592Z,98787.00
2023-03-26T14:48:41.308Z,98778.00
2023-03-26T14:51:09.134Z,98776.00
2023-03-26T14:53:38.594Z,98780.00
2023-03-26T14:56:07.270Z,98772.00
2023-03-26T14:58:35.438Z,98773.00
2023-03-26T15:01:09.289Z,98775.00
2023-03-26T15:03:59.979Z,98777.00
2023-03-26T15:06:46.697Z,98778.00
2023-03-26T15:09:29.785Z,98784.00
2023-03-26T15:12:13.090Z,98781.00
2023-03-26T15:14:41.543Z,98780.00
2023-03-26T15:17:30.428Z,98782.00
2023-03-26T15:20:16.955Z,98777.00
2023-03-26T15:23:03.620Z,98782.00
2023-03-26T15:25:34.183Z,98776.00
2023-03-26T15:28:11.747Z,98785.00
2023-03-26T15:30:54.442Z,98779.00
2023-03-26T15:33:34.458Z,98787.00
2023-03-26T15:36:11.162Z,98791.00
2023-03-26T15:38:57.217Z,98793.00
2023-03-26T15:41:43.977Z,98786.00
2023-03-26T15:44:23.638Z,98794.00
2023-03-26T15:46:58.888Z,98786.00
2023-03-26T15:49:29.922Z,98787.00
2023-03-26T15:52:06.519Z,98788.00
2023-03-26T15:54:56.216Z,98788.00
2023-03-26T15:57:30.824Z,98793.00
2023-03-26T16:00:17.781Z,98788.00
2023-03-26T16:02:54.156Z,98804.00
2023-03-26T16:05:33.173Z,98798.00
2023-03-26T16:08:16.288Z,98793.00
2023-03-26T16:10:57.452Z,98785.00
2023-03-26T16:13:38.019Z,98800.00
2023-03-26T16:16:07.384Z,98807.00
2023-03-26T16:18:38.620Z,98803.00
2023-03-26T16:21:31.361Z,98798.00
2023-03-26T16:24:03.513Z,98811.00
2023-03-26T16:26:49.987Z,98808.00
2023-03-26T16:29:18.845Z,98802.00
2023-03-26T16:31:56.382Z,98806.00
2023-03-26T16:34:28.582Z,98805.00
2023-03-26T16:36:56.413Z,98809.00
2023-03-26T16:39:25.125Z,98813.00
2023-03-26T16:42:06.467Z,98809.00
2023-03-26T16:44:40.192Z,98806.00
2023-03-26T16:47:10.860Z,98814.00
2023-03-26T16:50:08.997Z,98813.00
2023-03-26T16:52:37.554Z,98816.00
2023-03-26T16:55:14.863Z,98823.00
2023-03-26T16:57:45.610Z,98816.00
2023-03-26T17:00:25.131Z,98816.00
2023-03-26T17:02:56.910Z,98828.00
2023-03-26T17:05:24.839Z,98827.00
2023-03-26T17:07:52.753Z,98826.00
2023-03-26T17:10:33.095Z,98837.00
2023-03-26T17:13:01.036Z,98837.00
2023-03-26T17:15:38.120Z,98842.00
2023-03-26T17:18:25.040Z,98840.00
2023-03-26T17:20:57.960Z,98845.00
2023-03-26T17:23:28.871Z,98841.00
2023-03-26T17:26:04.872Z,98847.00
2023-03-26T17:28:50.730Z,98853.00
2023-03-26T17:31:24.455Z,98856.00
2023-03-26T17:33:52.022Z,98860.00
2023-03-26T17:36:43.853Z,98860.00
2023-03-26T17:39:19.015Z,98863.00
2023-03-26T17:41:51.951Z,98861.00
2023-03-26T17:44:49.122Z,98872.00
2023-03-26T17:47:20.046Z,98867.00
2023-03-26T17:49:47.770Z,98872.00
2023-03-26T17:52:21.525Z,98877.00
2023-03-26T17:54:52.599Z,98871.00
2023-03-26T17:57:25.968Z,98876.00
2023-03-26T17:59:56.392Z,98886.00
2023-03-26T18:02:35.536Z,98895.00
2023-03-26T18:05:04.874Z,98895.00
2023-03-26T18:07:38.816Z,98888.00
2023-03-26T18:10:29.110Z,98894.00
2023-03-26T18:13:05.955Z,98902.00
2023-03-26T18:15:37.183Z,98900.00
2023-03-26T18:18:18.380Z,98902.00
2023-03-26T18:20:47.260Z,98914.00
2023-03-26T18:23:24.462Z,98916.00
2023-03-26T18:26:09.616Z,98919.00
2023-03-26T18:28:41.418Z,98929.00
2023-03-26T18:31:19.730Z,98930.00
2023-03-26T18:33:49.309Z,98933.00
2023-03-26T18:36:18.821Z,98929.00
2023-03-26T18:38:49.063Z,98937.00
2023-03-26T18:41:25.716Z,98938.00
2023-03-26T18:43:53.651Z,98943.00
2023-03-26T18:46:22.080Z,98943.00
2023-03-26T18:48:50.363Z,98949.00
2023-03-26T18:51:23.285Z,98947.00
2023-03-26T18:53:52.595Z,98954.00
2023-03-26T18:56:24.786Z,98960.00
2023-03-26T18:58:52.885Z,98959.00
2023-03-26T19:01:25.831Z,98958.00
2023-03-26T19:03:54.193Z,98957.00
2023-03-26T19:06:22.009Z,98960.00
2023-03-26T19:08:50.103Z,98964.00
2023-03-26T19:11:18.157Z,98967.00
2023-03-26T19:13:48.922Z,98967.00
2023-03-26T19:16:16.803Z,98961.00
2023-03-26T19:18:44.934Z,98968.00
2023-03-26T19:21:13.244Z,98968.00
2023-03-26T19:23:41.685Z,98972.00
2023-03-26T19:26:10.453Z,98984.00
2023-03-26T19:28:39.540Z,98980.00
2023-03-26T19:31:16.635Z,98988.00
2023-03-26T19:33:44.570Z,98986.00
2023-03-26T19:36:20.014Z,98992.00
2023-03-26T19:39:00.231Z,98987.00
2023-03-26T19:41:38.634Z,98990.00
2023-03-26T19:44:12.131Z,98989.00
2023-03-26T19:46:53.611Z,98993.00
2023-03-26T19:49:30.338Z,98993.00
2023-03-26T19:52:18.515Z,99003.00
2023-03-26T19:55:16.098Z,98998.00
2023-03-26T19:57:43.838Z,99002.00
2023-03-26T20:00:14.774Z,99006.00
2023-03-26T20:02:43.029Z,99016.00
2023-03-26T20:05:23.377Z,99010.00
2023-03-26T20:07:54.747Z,99012.00
2023-03-26T20:10:22.696Z,99015.00
2023-03-26T20:12:50.581Z,99016.00
2023-03-26T20:15:25.409Z,99024.00
2023-03-26T20:17:56.072Z,99025.00
2023-03-26T20:20:28.144Z,99025.00
2023-03-26T20:22:56.142Z,99028.00
2023-03-26T20:25:26.106Z,99036.00
2023-03-26T20:27:55.689Z,99030.00
2023-03-26T20:30:37.016Z,99042.00
2023-03-26T20:33:12.480Z,99035.00
2023-03-26T20:35:41.900Z,99043.00
2023-03-26T20:38:10.633Z,99048.00
2023-03-26T20:40:38.733Z,99051.00
2023-03-26T20:43:12.983Z,99060.00
2023-03-26T20:45:41.042Z,99070.00
2023-03-26T20:48:10.591Z,99072.00
2023-03-26T20:53:14.229Z,99066.00
2023-03-26T20:55:44.235Z,99076.00
2023-03-26T20:58:18.111Z,99072.00
2023-03-26T21:01:00.701Z,99085.00
2023-03-26T21:03:29.029Z,99086.00
2023-03-26T21:05:59.825Z,99088.00
2023-03-26T21:08:34.359Z,99096.00
2023-03-26T21:11:02.851Z,99097.00
2023-03-26T21:13:41.326Z,99104.00
2023-03-26T21:16:09.802Z,99099.00
2023-03-26T21:18:37.760Z,99100.00
2023-03-26T21:21:18.123Z,99109.00
2023-03-26T21:24:00.608Z,99116.00
2023-03-26T21:26:30.427Z,99125.00
2023-03-26T21:28:59.725Z,99132.00
2023-03-26T21:31:31.202Z,99142.00
2023-03-26T21:33:59.297Z,99138.00
2023-03-26T21:36:27.992Z,99136.00
2023-03-26T21:38:56.018Z,99139.00
2023-03-26T21:41:24.355Z,99141.00
2023-03-26T21:43:52.718Z,99147.00
2023-03-26T21:46:21.157Z,99149.00
2023-03-26T21:48:49.042Z,99155.00
2023-03-26T21:51:19.682Z,99152.00
2023-03-26T21:53:47.709Z,99165.00
2023-03-26T21:56:23.609Z,99156.00
2023-03-26T21:59:00.645Z,99148.00
2023-03-26T22:01:47.138Z,99160.00
2023-03-26T22:04:15.144Z,99163.00
2023-03-26T22:06:47.385Z,99169.00
2023-03-26T22:09:18.482Z,99165.00
2023-03-26T22:11:48.537Z,99176.00
2023-03-26T22:14:16.192Z,99185.00
2023-03-26T22:16:43.980Z,99184.00
2023-03-26T22:19:12.858Z,99193.00
2023-03-26T22:21:40.618Z,99196.00
2023-03-26T22:24:08.850Z,99201.00
2023-03-26T22:26:37.043Z,99207.00
2023-03-26T22:29:05.487Z,99204.00
2023-03-26T22:31:33.654Z,99207.00
2023-03-26T22:34:01.978Z,99216.00
2023-03-26T22:36:30.052Z,99210.00
2023-03-26T22:38:58.786Z,99222.00
2023-03-26T22:41:27.358Z,99222.00
2023-03-26T22:44:16.963Z,99227.00
2023-03-26T22:46:51.006Z,99230.00
2023-03-26T22:49:18.910Z,99229.00
2023-03-26T22:51:47.076Z,99234.00
2023-03-26T22:54:15.173Z,99232.00
2023-03-26T22:56:43.957Z,99240.00
2023-03-26T22:59:11.905Z,99248.00
2023-03-26T23:01:39.774Z,99254.00
2023-03-26T23:04:08.475Z,99254.00
2023-03-26T23:06:36.255Z,99255.00
2023-03-26T23:09:04.080Z,99267.00
2023-03-26T23:11:31.838Z,99268.00
2023-03-26T23:13:59.836Z,99278.00
2023-03-26T23:16:27.732Z,99270.00
2023-03-26T23:18:55.596Z,99274.00
2023-03-26T23:21:23.648Z,99283.00
2023-03-26T23:23:54.573Z,99282.00
2023-03-26T23:26:22.347Z,99289.00
2023-03-26T23:28:51.679Z,99288.00
2023-03-26T23:31:19.467Z,99297.00
2023-03-26T23:33:47.681Z,99299.00
2023-03-26T23:36:17.964Z,99308.00
2023-03-26T23:38:47.410Z,99306.00
2023-03-26T23:41:19.418Z,99308.00
2023-03-26T23:43:54.720Z,99315.00
2023-03-26T23:46:24.784Z,99321.00
2023-03-26T23:48:53.366Z,99321.00
2023-03-26T23:51:22.589Z,99328.00
2023-03-26T23:53:50.859Z,99332.00
2023-03-26T23:56:18.592Z,99341.00
2023-03-26T23:58:46.520Z,99341.00
